Time;durP1;ratioP1;P1;durP2;ratioP2;P2;SDS_P1;SDS_P2;PMS_P1;PMS_P2;Temp;Humidity;BMP_temperature;BMP_pressure;BME280_temperature;BME280_humidity;BME280_pressure;Samples;Min_cycle;Max_cycle;Signal;HPM_P1;HPM_P2
2022/01/10 00:00:51;;;;;;;33.88;9.65;;;2.20;99.90;;;;;;5111347;28;20062;-70
2022/01/10 00:03:17;;;;;;;26.45;8.88;;;2.80;99.90;;;;;;5111899;28;20088;-70
2022/01/10 00:05:44;;;;;;;31.38;9.35;;;2.30;99.90;;;;;;5111600;28;20052;-70
2022/01/10 00:08:12;;;;;;;32.42;10.07;;;;;;;;;;5113014;28;20054;-70
2022/01/10 00:10:38;;;;;;;29.52;9.85;;;2.20;99.90;;;;;;5112722;28;20403;-70
2022/01/10 00:13:04;;;;;;;41.10;10.35;;;1.40;99.90;;;;;;5112958;28;20032;-70
2022/01/10 00:15:30;;;;;;;29.58;9.10;;;;;;;;;;5112202;28;20127;-70
2022/01/10 00:17:55;;;;;;;23.92;7.97;;;1.30;99.90;;;;;;5110805;28;20043;-68
2022/01/10 00:20:22;;;;;;;29.27;9.82;;;;;;;;;;5110744;28;20064;-68
2022/01/10 00:22:49;;;;;;;34.25;11.15;;;1.80;99.90;;;;;;5111255;28;20035;-68
2022/01/10 00:25:17;;;;;;;27.88;9.38;;;2.90;99.90;;;;;;5112315;28;20101;-68
2022/01/10 00:27:45;;;;;;;25.15;9.48;;;;;;;;;;5110792;28;20093;-68
2022/01/10 00:30:12;;;;;;;30.83;9.82;;;1.90;99.90;;;;;;5110978;28;20048;-69
2022/01/10 00:32:44;;;;;;;37.70;9.70;;;2.20;99.90;;;;;;5110678;28;20050;-69
2022/01/10 00:35:10;;;;;;;36.67;11.00;;;1.80;99.90;;;;;;5111084;28;20047;-69
2022/01/10 00:37:41;;;;;;;30.50;9.95;;;2.40;99.90;;;;;;5112007;28;20048;-69
2022/01/10 00:40:07;;;;;;;29.25;9.65;;;1.50;99.90;;;;;;5112206;28;20138;-70
2022/01/10 00:42:33;;;;;;;32.60;9.93;;;1.50;99.90;;;;;;5110199;28;20101;-71
2022/01/10 00:45:02;;;;;;;29.83;9.32;;;1.70;99.90;;;;;;5111829;28;20475;-70
2022/01/10 00:47:28;;;;;;;24.75;9.35;;;1.60;99.90;;;;;;5112174;28;20058;-71
2022/01/10 00:49:54;;;;;;;29.75;8.38;;;1.50;99.90;;;;;;5110666;28;20424;-70
2022/01/10 00:52:21;;;;;;;24.75;9.15;;;;;;;;;;5110316;28;20224;-71
2022/01/10 00:54:49;;;;;;;33.50;8.65;;;;;;;;;;5110036;28;20050;-71
2022/01/10 00:57:15;;;;;;;24.88;8.57;;;1.40;99.90;;;;;;5110394;28;20039;-71
2022/01/10 00:59:41;;;;;;;23.48;8.05;;;;;;;;;;5111481;28;20058;-70
2022/01/10 01:02:10;;;;;;;31.83;8.65;;;2.00;99.90;;;;;;5111393;28;20049;-71
2022/01/10 01:04:38;;;;;;;21.27;8.35;;;0.90;99.90;;;;;;5111277;28;20086;-71
2022/01/10 01:07:06;;;;;;;24.35;9.32;;;;;;;;;;5109823;28;20052;-71
2022/01/10 01:09:33;;;;;;;24.25;9.23;;;;;;;;;;5110968;28;20055;-70
2022/01/10 01:15:18;;;;;;;25.55;8.75;;;1.30;99.90;;;;;;5109969;28;20078;-71
2022/01/10 01:17:35;;;;;;;24.63;8.75;;;1.00;99.90;;;;;;5107569;28;20398;-70
2022/01/10 01:20:09;;;;;;;22.70;8.48;;;1.00;99.90;;;;;;5111023;28;20461;-71
2022/01/10 01:25:20;;;;;;;24.17;8.73;;;;;;;;;;5111041;28;20054;-70
2022/01/10 01:27:52;;;;;;;23.50;9.07;;;0.60;99.90;;;;;;5111314;28;20395;-70
2022/01/10 01:30:18;;;;;;;23.40;9.73;;;1.00;99.90;;;;;;5109853;28;20056;-71
2022/01/10 01:32:44;;;;;;;24.67;8.75;;;0.70;99.90;;;;;;5111193;28;20046;-71
2022/01/10 01:35:10;;;;;;;23.55;9.55;;;0.40;99.90;;;;;;5109800;28;20495;-71
2022/01/10 01:37:37;;;;;;;28.10;9.23;;;0.80;99.90;;;;;;5111114;28;20047;-71
2022/01/10 01:40:05;;;;;;;31.10;9.98;;;0.80;99.90;;;;;;5111066;28;20055;-70
2022/01/10 01:42:40;;;;;;;34.45;10.02;;;1.40;99.90;;;;;;5110127;28;20097;-71
2022/01/10 01:45:09;;;;;;;25.30;8.90;;;0.60;99.90;;;;;;5111072;28;20124;-71
2022/01/10 01:47:35;;;;;;;30.33;10.70;;;0.40;99.90;;;;;;5111060;28;20156;-71
2022/01/10 01:50:05;;;;;;;32.50;10.10;;;0.40;99.90;;;;;;5110935;28;20039;-70
2022/01/10 01:52:30;;;;;;;28.23;9.57;;;0.30;99.90;;;;;;5092547;28;20050;-71
2022/01/10 01:54:56;;;;;;;26.50;9.68;;;0.40;99.90;;;;;;5110562;28;20115;-71
2022/01/10 01:57:23;;;;;;;25.17;10.10;;;0.90;99.90;;;;;;5111296;28;20100;-71
2022/01/10 01:59:49;;;;;;;33.38;10.90;;;0.60;99.90;;;;;;5109704;28;20042;-71
2022/01/10 02:02:15;;;;;;;39.60;11.80;;;0.30;99.90;;;;;;5092191;28;20077;-71
2022/01/10 02:04:41;;;;;;;30.92;10.40;;;;;;;;;;5110454;28;20083;-70
2022/01/10 02:07:07;;;;;;;28.23;10.60;;;;;;;;;;5109077;28;20059;-70
2022/01/10 02:09:33;;;;;;;32.80;11.60;;;;;;;;;;5109090;28;20049;-71
2022/01/10 02:11:59;;;;;;;38.58;11.43;;;;;;;;;;5111011;28;20054;-71
2022/01/10 02:14:25;;;;;;;23.27;10.15;;;0.50;99.90;;;;;;5109328;28;20043;-70
2022/01/10 02:16:55;;;;;;;29.55;10.98;;;0.60;99.90;;;;;;5110493;28;20239;-70
2022/01/10 02:19:22;;;;;;;31.20;11.98;;;0.20;99.90;;;;;;5110558;28;20038;-70
2022/01/10 02:21:49;;;;;;;30.38;10.90;;;0.50;99.90;;;;;;5109327;28;20440;-70
2022/01/10 02:24:17;;;;;;;33.47;10.52;;;;;;;;;;5109679;28;20441;-70
2022/01/10 02:26:50;;;;;;;35.15;11.05;;;0.10;99.90;;;;;;5108884;28;20052;-70
2022/01/10 02:29:16;;;;;;;27.20;10.68;;;0.20;99.90;;;;;;5110206;28;20083;-71
2022/01/10 02:31:42;;;;;;;30.92;12.10;;;;;;;;;;5110509;28;20459;-71
2022/01/10 02:34:09;;;;;;;28.65;10.30;;;0.20;99.90;;;;;;5110322;28;20445;-70
2022/01/10 02:36:35;;;;;;;27.58;10.90;;;;;;;;;;5108962;28;20487;-71
2022/01/10 02:39:08;;;;;;;31.45;10.93;;;-0.20;99.90;;;;;;5110599;28;20058;-70
2022/01/10 02:41:36;;;;;;;28.30;11.27;;;0.00;99.90;;;;;;5110708;28;20100;-70
2022/01/10 02:44:05;;;;;;;33.75;12.68;;;0.20;99.90;;;;;;5110182;28;20058;-70
2022/01/10 02:46:34;;;;;;;32.35;12.02;;;0.10;99.90;;;;;;5113912;28;20386;-70
2022/01/10 02:49:01;;;;;;;30.02;12.05;;;;;;;;;;5112557;28;20140;-70
2022/01/10 02:51:27;;;;;;;30.35;11.75;;;-0.50;99.90;;;;;;5112466;28;20048;-70
2022/01/10 02:53:57;;;;;;;24.95;12.10;;;-0.70;99.90;;;;;;5114170;28;20370;-70
2022/01/10 02:56:23;;;;;;;30.23;11.27;;;-0.20;99.90;;;;;;5114385;28;20062;-70
2022/01/10 02:58:49;;;;;;;27.80;11.38;;;;;;;;;;5114015;28;20491;-70
2022/01/10 03:01:15;;;;;;;30.70;11.80;;;;;;;;;;5113832;28;20043;-71
2022/01/10 03:03:41;;;;;;;31.65;13.02;;;-0.40;99.90;;;;;;5095141;28;20051;-71
2022/01/10 03:06:07;;;;;;;27.10;12.60;;;-0.10;99.90;;;;;;5112059;28;20044;-70
2022/01/10 03:08:33;;;;;;;31.83;12.93;;;-0.30;99.90;;;;;;5113539;28;20473;-70
2022/01/10 03:11:01;;;;;;;34.42;13.75;;;-0.10;99.90;;;;;;5113487;28;20040;-70
2022/01/10 03:13:27;;;;;;;41.47;13.25;;;;;;;;;;5113542;28;20397;-70
2022/01/10 03:15:53;;;;;;;39.15;14.07;;;-0.30;99.90;;;;;;5113637;28;20044;-70
2022/01/10 03:18:18;;;;;;;37.97;12.57;;;-1.00;99.90;;;;;;5113469;28;20083;-70
2022/01/10 03:20:44;;;;;;;30.30;13.80;;;;;;;;;;5112249;28;20093;-70
2022/01/10 03:23:10;;;;;;;43.90;14.48;;;;;;;;;;5112588;28;20471;-70
2022/01/10 03:25:45;;;;;;;45.13;13.43;;;0.00;99.90;;;;;;5113170;28;20486;-70
2022/01/10 03:28:14;;;;;;;39.78;14.35;;;;;;;;;;5112083;28;20059;-70
2022/01/10 03:30:42;;;;;;;34.60;12.90;;;-0.20;99.90;;;;;;5112222;28;20415;-70
2022/01/10 03:33:08;;;;;;;36.75;13.75;;;-0.20;99.90;;;;;;5094700;28;20475;-70
2022/01/10 03:35:35;;;;;;;36.35;13.57;;;;;;;;;;5112530;28;20403;-70
2022/01/10 03:38:01;;;;;;;33.08;13.43;;;-0.40;99.90;;;;;;5095852;28;20044;-70
2022/01/10 03:40:36;;;;;;;34.70;13.43;;;-0.40;99.90;;;;;;5113731;28;20055;-70
2022/01/10 03:43:02;;;;;;;35.92;13.60;;;;;;;;;;5112106;28;20426;-70
2022/01/10 03:45:28;;;;;;;28.70;13.52;;;;;;;;;;5113492;28;20145;-70
2022/01/10 03:47:53;;;;;;;31.88;12.90;;;-0.40;99.90;;;;;;5111891;28;20047;-70
2022/01/10 03:50:19;;;;;;;24.75;13.80;;;-0.40;99.90;;;;;;5113504;28;20043;-70
2022/01/10 03:52:45;;;;;;;31.58;12.60;;;;;;;;;;5112002;28;20035;-70
2022/01/10 03:55:11;;;;;;;24.92;12.43;;;-0.10;99.90;;;;;;5113150;28;20054;-70
2022/01/10 03:57:37;;;;;;;31.08;13.98;;;;;;;;;;5111398;28;20044;-70
2022/01/10 04:00:06;;;;;;;27.92;13.32;;;0.40;99.90;;;;;;5111337;28;20130;-70
2022/01/10 04:02:33;;;;;;;26.10;11.90;;;;;;;;;;5113310;28;20391;-70
2022/01/10 04:04:59;;;;;;;28.65;12.88;;;0.40;99.90;;;;;;5111345;28;20407;-70
2022/01/10 04:07:25;;;;;;;27.27;12.00;;;;;;;;;;5111868;28;20050;-70
2022/01/10 04:09:51;;;;;;;27.90;13.13;;;;;;;;;;5112385;28;20108;-70
2022/01/10 04:12:18;;;;;;;29.67;12.82;;;;;;;;;;5110890;28;20491;-70
2022/01/10 04:14:44;;;;;;;25.10;13.38;;;;;;;;;;5112272;28;20040;-70
2022/01/10 04:17:10;;;;;;;34.97;13.63;;;;;;;;;;5112152;28;20177;-70
2022/01/10 04:19:39;;;;;;;29.73;13.15;;;-0.60;99.90;;;;;;5112961;28;20040;-70
2022/01/10 04:22:05;;;;;;;21.80;12.00;;;-0.50;99.90;;;;;;5110886;28;20372;-70
2022/01/10 04:24:31;;;;;;;32.08;12.43;;;;;;;;;;5110679;28;20519;-69
2022/01/10 04:26:57;;;;;;;28.67;12.95;;;-0.80;99.90;;;;;;5110935;28;20044;-69
2022/01/10 04:29:23;;;;;;;47.15;13.27;;;;;;;;;;5093653;28;20051;-69
2022/01/10 04:31:49;;;;;;;43.13;14.43;;;-0.10;99.90;;;;;;5110551;28;20040;-69
2022/01/10 04:34:16;;;;;;;59.80;14.80;;;;;;;;;;5110985;28;20097;-69
2022/01/10 04:36:42;;;;;;;70.97;15.68;;;-0.70;99.90;;;;;;5111880;28;20051;-69
2022/01/10 04:39:08;;;;;;;53.10;14.45;;;;;;;;;;5111651;28;20047;-69
2022/01/10 04:41:34;;;;;;;85.68;16.33;;;-0.60;99.90;;;;;;5110323;28;20051;-69
2022/01/10 04:44:00;;;;;;;130.80;15.38;;;;;;;;;;5110646;28;20058;-69
2022/01/10 04:46:26;;;;;;;60.97;16.40;;;;;;;;;;5111876;28;20043;-69
2022/01/10 04:48:52;;;;;;;61.47;15.10;;;-0.60;99.90;;;;;;5110081;28;20052;-73
2022/01/10 04:51:20;;;;;;;94.60;15.10;;;-0.50;99.90;;;;;;5110177;28;20108;-73
2022/01/10 04:53:48;;;;;;;124.57;18.45;;;1.00;99.90;;;;;;5110338;28;20444;-73
2022/01/10 04:56:17;;;;;;;99.25;16.10;;;-0.50;99.90;;;;;;5111611;28;20036;-73
2022/01/10 04:58:45;;;;;;;482.17;30.42;;;-0.70;99.90;;;;;;5111882;28;20089;-73
2022/01/10 05:01:11;;;;;;;75.63;15.45;;;-0.70;99.90;;;;;;5111105;28;20058;-73
2022/01/10 05:03:39;;;;;;;49.80;13.20;;;-1.10;99.90;;;;;;5110343;28;20050;-73
2022/01/10 05:06:05;;;;;;;67.88;15.02;;;-0.80;99.90;;;;;;5110467;28;20052;-73
2022/01/10 05:08:35;;;;;;;68.45;13.57;;;-0.90;99.90;;;;;;5111111;28;20502;-72
2022/01/10 05:11:01;;;;;;;35.25;13.35;;;-0.80;99.90;;;;;;5111399;28;20027;-73
2022/01/10 05:13:29;;;;;;;194.88;19.35;;;-0.90;99.90;;;;;;5111399;28;20070;-73
2022/01/10 05:15:55;;;;;;;48.55;14.23;;;;;;;;;;5109788;28;20043;-73
2022/01/10 05:18:23;;;;;;;44.45;13.93;;;-0.90;99.90;;;;;;5111509;28;20073;-73
2022/01/10 05:20:50;;;;;;;23.60;12.85;;;-1.00;99.90;;;;;;5111212;28;20043;-73
2022/01/10 05:23:17;;;;;;;35.72;14.63;;;;;;;;;;5111154;28;20369;-73
2022/01/10 05:25:43;;;;;;;32.63;13.40;;;-1.20;99.90;;;;;;5110019;28;20051;-73
2022/01/10 05:28:12;;;;;;;64.60;15.13;;;-0.90;99.90;;;;;;5111323;28;20036;-73
2022/01/10 05:30:41;;;;;;;40.17;13.93;;;-0.60;99.90;;;;;;5110986;28;20085;-73
2022/01/10 05:33:07;;;;;;;157.88;17.70;;;;;;;;;;5109938;28;20119;-72
2022/01/10 05:35:35;;;;;;;52.90;15.10;;;-0.90;99.90;;;;;;5109632;28;20104;-72
2022/01/10 05:38:01;;;;;;;96.63;17.27;;;;;;;;;;5110796;28;20077;-73
2022/01/10 05:40:27;;;;;;;95.72;20.75;;;-0.50;99.90;;;;;;5110996;28;20541;-73
2022/01/10 05:42:55;;;;;;;73.78;18.58;;;-1.00;99.90;;;;;;5109980;28;20083;-72
2022/01/10 05:45:21;;;;;;;66.20;18.08;;;-1.00;99.90;;;;;;5111111;28;20086;-73
2022/01/10 05:47:47;;;;;;;55.53;16.60;;;-0.90;99.90;;;;;;5110813;28;20047;-72
2022/01/10 05:50:18;;;;;;;59.08;17.63;;;-0.90;99.90;;;;;;5111121;28;20040;-72
2022/01/10 05:52:44;;;;;;;32.85;16.33;;;-0.90;99.90;;;;;;5109587;28;20084;-69
2022/01/10 05:55:10;;;;;;;58.67;16.70;;;;;;;;;;5109570;28;20086;-69
2022/01/10 05:57:36;;;;;;;48.88;18.65;;;-0.90;99.90;;;;;;5109296;28;20054;-69
2022/01/10 06:00:05;;;;;;;107.90;19.85;;;-1.80;99.90;;;;;;5110555;28;20035;-69
2022/01/10 06:02:31;;;;;;;79.45;19.95;;;-1.10;99.90;;;;;;5109056;28;20047;-73
2022/01/10 06:04:59;;;;;;;38.22;18.20;;;;;;;;;;5109015;28;20059;-73
2022/01/10 06:07:25;;;;;;;53.92;18.60;;;;;;;;;;5108984;28;20163;-73
2022/01/10 06:09:53;;;;;;;29.58;16.77;;;-1.00;99.90;;;;;;5109399;28;20048;-73
2022/01/10 06:12:18;;;;;;;52.17;19.30;;;-1.10;99.90;;;;;;5110603;28;20491;-73
2022/01/10 06:14:44;;;;;;;29.05;16.77;;;;;;;;;;5110492;28;20054;-73
2022/01/10 06:17:10;;;;;;;62.42;18.90;;;-1.20;99.90;;;;;;5109367;28;20149;-72
2022/01/10 06:19:36;;;;;;;65.18;22.08;;;;;;;;;;5111042;28;20130;-72
2022/01/10 06:22:02;;;;;;;135.40;25.20;;;;;;;;;;5114473;28;20081;-72
2022/01/10 06:24:29;;;;;;;65.47;22.00;;;-0.90;99.90;;;;;;5113653;28;20134;-72
2022/01/10 06:26:55;;;;;;;46.92;18.92;;;;;;;;;;5096474;28;20410;-72
2022/01/10 06:29:21;;;;;;;49.75;21.42;;;;;;;;;;5114243;27;20059;-72
2022/01/10 06:31:47;;;;;;;70.95;21.95;;;;;;;;;;5112823;28;20475;-73
2022/01/10 06:34:13;;;;;;;433.73;36.97;;;-1.10;99.90;;;;;;5112910;28;20051;-72
2022/01/10 06:36:41;;;;;;;205.93;29.17;;;-1.10;99.90;;;;;;5114145;28;20035;-72
2022/01/10 06:39:07;;;;;;;111.95;27.15;;;;;;;;;;5114388;28;20047;-73
2022/01/10 06:41:33;;;;;;;259.08;33.80;;;;;;;;;;5114452;28;20051;-72
2022/01/10 06:43:59;;;;;;;105.25;28.88;;;-1.20;99.90;;;;;;5112875;28;20491;-72
2022/01/10 06:46:25;;;;;;;118.70;33.45;;;-1.60;99.90;;;;;;5095942;28;20047;-72
2022/01/10 06:48:51;;;;;;;249.38;41.20;;;-1.00;99.90;;;;;;5113968;28;20532;-73
2022/01/10 06:51:17;;;;;;;179.27;34.63;;;;;;;;;;5113199;28;20415;-72
2022/01/10 06:53:42;;;;;;;98.18;34.10;;;-1.10;99.90;;;;;;5096425;28;20391;-72
2022/01/10 06:56:08;;;;;;;88.95;33.45;;;-1.30;99.90;;;;;;5113104;28;20048;-72
2022/01/10 06:58:36;;;;;;;86.05;37.72;;;-1.10;99.90;;;;;;5113867;28;20127;-68
2022/01/10 07:01:02;;;;;;;69.18;32.95;;;-0.40;99.90;;;;;;5113894;28;20456;-68
2022/01/10 07:03:28;;;;;;;61.58;29.95;;;;;;;;;;5112587;28;20043;-69
2022/01/10 07:05:53;;;;;;;66.00;30.27;;;-1.40;99.90;;;;;;5113643;27;20054;-68
2022/01/10 07:08:20;;;;;;;80.38;28.65;;;-1.00;99.90;;;;;;5113870;28;20463;-68
2022/01/10 07:10:46;;;;;;;168.02;31.27;;;;;;;;;;5113247;28;20040;-68
2022/01/10 07:13:12;;;;;;;142.68;28.98;;;;;;;;;;5111973;28;20087;-69
2022/01/10 07:15:38;;;;;;;266.20;33.85;;;;;;;;;;5112070;28;20047;-69
2022/01/10 07:18:04;;;;;;;112.22;29.15;;;;;;;;;;5112464;28;20047;-68
2022/01/10 07:20:32;;;;;;;70.65;27.23;;;;;;;;;;5112306;28;20079;-68
2022/01/10 07:22:58;;;;;;;98.32;32.40;;;;;;;;;;5113705;28;20122;-68
2022/01/10 07:25:24;;;;;;;99.93;29.08;;;;;;;;;;5095017;28;20086;-69
2022/01/10 07:27:50;;;;;;;49.60;25.98;;;;;;;;;;5112778;28;20055;-68
2022/01/10 07:30:16;;;;;;;55.25;26.92;;;-1.20;99.90;;;;;;5112837;28;20054;-68
2022/01/10 07:32:42;;;;;;;70.22;34.15;;;;;;;;;;5113010;28;20044;-68
2022/01/10 07:35:10;;;;;;;60.17;30.15;;;-1.20;99.90;;;;;;5095164;28;20051;-68
2022/01/10 07:37:36;;;;;;;72.32;31.58;;;-0.90;99.90;;;;;;5113608;28;20445;-68
2022/01/10 07:40:03;;;;;;;71.43;32.92;;;-1.10;99.90;;;;;;5113248;28;20490;-68
2022/01/10 07:42:29;;;;;;;117.90;41.50;;;-1.10;99.90;;;;;;5112988;28;20040;-68
2022/01/10 07:44:55;;;;;;;203.60;52.42;;;-1.20;99.90;;;;;;5113162;28;20075;-68
2022/01/10 07:47:21;;;;;;;90.10;41.45;;;-1.00;99.90;;;;;;5112990;28;20069;-68
2022/01/10 07:49:47;;;;;;;77.65;40.38;;;;;;;;;;5113121;28;20040;-68
2022/01/10 07:52:13;;;;;;;77.53;37.58;;;;;;;;;;5106609;28;20085;-72
2022/01/10 07:54:39;;;;;;;80.57;37.58;;;-1.00;99.90;;;;;;5110440;28;20444;-72
2022/01/10 07:57:05;;;;;;;67.70;35.42;;;;;;;;;;5110558;28;20039;-72
2022/01/10 07:59:31;;;;;;;79.30;36.38;;;;;;;;;;5122868;27;20076;-72
2022/01/10 08:01:57;;;;;;;54.95;31.45;;;;;;;;;;5122670;27;20507;-72
2022/01/10 08:04:23;;;;;;;66.22;33.65;;;-0.90;99.90;;;;;;5121610;27;20069;-72
2022/01/10 08:06:49;;;;;;;59.67;29.00;;;;;;;;;;5117792;27;20059;-72
2022/01/10 08:09:16;;;;;;;64.07;31.23;;;;;;;;;;5130578;27;20122;-73
2022/01/10 08:11:42;;;;;;;65.53;34.08;;;;;;;;;;5130717;27;20061;-72
2022/01/10 08:14:08;;;;;;;55.22;30.33;;;;;;;;;;5122521;27;20126;-72
2022/01/10 08:16:33;;;;;;;48.63;28.10;;;-0.90;99.90;;;;;;5111700;28;20097;-72
2022/01/10 08:18:59;;;;;;;64.13;33.58;;;;;;;;;;5110010;28;20060;-72
2022/01/10 08:21:26;;;;;;;65.15;33.88;;;-1.00;99.90;;;;;;5099434;28;20498;-72
2022/01/10 08:23:52;;;;;;;57.33;32.05;;;;;;;;;;5099391;28;20108;-72
2022/01/10 08:26:19;;;;;;;56.00;32.00;;;;;;;;;;5109668;28;20104;-72
2022/01/10 08:28:45;;;;;;;56.95;30.00;;;;;;;;;;5109843;28;20055;-72
2022/01/10 08:31:11;;;;;;;49.70;27.08;;;;;;;;;;5109876;28;20039;-72
2022/01/10 08:33:38;;;;;;;58.10;30.27;;;-1.10;99.90;;;;;;5106177;28;20096;-71
2022/01/10 08:36:03;;;;;;;62.13;30.95;;;-1.90;99.90;;;;;;5089876;28;20067;-71
2022/01/10 08:38:30;;;;;;;63.78;31.65;;;;;;;;;;5110999;27;20118;-71
2022/01/10 08:40:55;;;;;;;67.60;35.50;;;-1.00;99.90;;;;;;5111439;28;20086;-71
2022/01/10 08:43:21;;;;;;;57.20;32.30;;;-1.10;99.90;;;;;;5110102;27;20878;-72
2022/01/10 08:45:47;;;;;;;64.82;34.53;;;;;;;;;;5093090;28;20051;-71
2022/01/10 08:48:14;;;;;;;71.07;35.90;;;-0.80;99.90;;;;;;5105066;28;20134;-71
2022/01/10 08:50:40;;;;;;;65.38;32.20;;;;;;;;;;5108467;28;20054;-72
2022/01/10 08:53:10;;;;;;;66.65;34.67;;;-0.70;99.90;;;;;;5108347;28;20301;-72
2022/01/10 08:55:36;;;;;;;69.38;33.17;;;;;;;;;;5109958;28;20055;-72
2022/01/10 08:58:04;;;;;;;59.25;32.00;;;;;;;;;;5110043;28;20139;-72
2022/01/10 09:00:29;;;;;;;70.35;34.15;;;-0.90;99.90;;;;;;5108893;28;20126;-72
2022/01/10 09:02:55;;;;;;;65.75;33.47;;;;;;;;;;5108995;28;20126;-72
2022/01/10 09:05:25;;;;;;;70.00;35.78;;;-0.60;99.90;;;;;;5107729;28;20055;-68
2022/01/10 09:07:56;;;;;;;86.55;39.50;;;-0.80;99.90;;;;;;5094057;28;20131;-68
2022/01/10 09:10:21;;;;;;;90.88;40.33;;;-0.60;99.90;;;;;;5087575;28;20056;-68
2022/01/10 09:12:47;;;;;;;98.05;42.05;;;-0.60;99.90;;;;;;5089594;28;20450;-68
2022/01/10 09:15:14;;;;;;;92.43;41.53;;;-0.40;99.90;;;;;;5089141;28;20059;-68
2022/01/10 09:17:40;;;;;;;92.07;44.65;;;;;;;;;;5088555;28;20047;-68
2022/01/10 09:20:07;;;;;;;109.32;50.15;;;;;;;;;;5070556;28;20127;-68
2022/01/10 09:22:32;;;;;;;134.18;58.40;;;-0.30;99.90;;;;;;5088427;28;20048;-68
2022/01/10 09:24:59;;;;;;;153.57;62.10;;;;;;;;;;5088236;28;20044;-68
2022/01/10 09:27:26;;;;;;;162.23;65.38;;;;;;;;;;5093099;28;20134;-69
2022/01/10 09:29:51;;;;;;;138.43;59.50;;;-0.10;99.90;;;;;;5095407;28;20067;-69
2022/01/10 09:32:18;;;;;;;144.10;58.53;;;;;;;;;;5104966;28;20054;-69
2022/01/10 09:34:47;;;;;;;156.52;62.95;;;0.20;99.90;;;;;;5088371;28;20131;-69
2022/01/10 09:37:13;;;;;;;157.23;60.92;;;-0.20;99.90;;;;;;5098933;28;20035;-69
2022/01/10 09:39:40;;;;;;;149.55;59.03;;;0.20;99.90;;;;;;5106815;27;20043;-69
2022/01/10 09:42:07;;;;;;;145.38;57.42;;;0.30;99.90;;;;;;5107787;28;20376;-69
2022/01/10 09:44:34;;;;;;;175.55;69.53;;;;;;;;;;5108644;27;20502;-69
2022/01/10 09:47:02;;;;;;;192.77;69.80;;;0.70;99.90;;;;;;5110055;28;20115;-69
2022/01/10 09:49:28;;;;;;;185.55;75.00;;;;;;;;;;5108371;28;20036;-69
2022/01/10 09:51:56;;;;;;;245.57;80.05;;;;;;;;;;5108343;28;20484;-69
2022/01/10 09:54:25;;;;;;;1999.90;423.35;;;1.20;99.90;;;;;;5092243;28;20043;-69
2022/01/10 09:56:51;;;;;;;1143.82;180.52;;;2.40;99.90;;;;;;5125711;27;20187;-69
2022/01/10 09:59:17;;;;;;;757.40;137.35;;;;;;;;;;5125687;28;20787;-69
2022/01/10 10:01:44;;;;;;;1260.97;171.50;;;;;;;;;;5108828;28;20546;-69
2022/01/10 10:04:12;;;;;;;803.85;177.85;;;4.00;99.90;;;;;;5108408;28;20135;-70
2022/01/10 10:06:38;;;;;;;514.20;117.03;;;3.40;99.90;;;;;;5120850;27;20134;-70
2022/01/10 10:09:06;;;;;;;828.17;156.18;;;3.30;99.90;;;;;;5088202;28;20075;-70
2022/01/10 10:11:43;;;;;;;662.25;164.52;;;3.50;99.90;;;;;;5088255;28;20131;-70
2022/01/10 10:14:11;;;;;;;315.83;121.85;;;3.20;99.90;;;;;;5088228;28;20101;-71
2022/01/10 10:16:41;;;;;;;237.05;102.47;;;3.90;99.90;;;;;;5089811;28;20074;-70
2022/01/10 10:19:07;;;;;;;261.27;117.07;;;;;;;;;;5089502;28;20056;-70
2022/01/10 10:21:34;;;;;;;259.77;110.75;;;2.90;99.90;;;;;;5094771;28;20496;-70
2022/01/10 10:24:04;;;;;;;271.33;122.65;;;3.00;99.90;;;;;;5108860;28;20043;-70
2022/01/10 10:26:31;;;;;;;168.85;86.75;;;3.30;99.90;;;;;;5108467;28;20059;-67
2022/01/10 10:28:56;;;;;;;199.38;99.55;;;2.80;99.90;;;;;;5109266;28;20052;-68
2022/01/10 10:31:50;;;;;;;161.27;81.13;;;3.00;99.90;;;;;;5108058;27;20407;-66
2022/01/10 10:34:28;;;;;;;117.30;67.32;;;3.80;99.90;;;;;;5108310;28;20051;-66
2022/01/10 10:37:11;;;;;;;143.63;74.22;;;3.10;99.90;;;;;;5108021;28;20047;-66
2022/01/10 10:39:43;;;;;;;118.43;67.97;;;2.80;99.90;;;;;;5108594;28;20130;-68
2022/01/10 10:42:12;;;;;;;108.60;62.17;;;2.90;99.90;;;;;;5109472;27;20411;-68
2022/01/10 10:44:39;;;;;;;117.35;68.95;;;3.00;99.90;;;;;;5108285;28;20126;-68
2022/01/10 10:47:05;;;;;;;104.25;59.22;;;3.00;99.90;;;;;;5109595;27;20460;-68
2022/01/10 10:49:36;;;;;;;82.97;52.45;;;3.80;99.90;;;;;;5109882;28;20365;-68
2022/01/10 10:52:05;;;;;;;93.60;55.90;;;3.10;99.90;;;;;;5109535;27;20051;-68
2022/01/10 10:54:32;;;;;;;82.78;53.92;;;3.10;99.90;;;;;;5108351;28;20036;-68
2022/01/10 10:57:04;;;;;;;86.13;52.35;;;3.00;99.90;;;;;;5108609;27;20035;-68
2022/01/10 10:59:35;;;;;;;82.80;53.67;;;3.20;99.90;;;;;;5106632;28;20047;-68
2022/01/10 11:02:02;;;;;;;80.20;50.47;;;3.20;99.90;;;;;;5109299;27;20048;-68
2022/01/10 11:04:30;;;;;;;66.70;43.72;;;;;;;;;;5108975;28;20043;-68
2022/01/10 11:06:56;;;;;;;79.80;49.33;;;3.30;99.90;;;;;;5110412;28;20058;-68
2022/01/10 11:09:22;;;;;;;78.35;49.40;;;;;;;;;;5112122;27;20055;-68
2022/01/10 11:11:48;;;;;;;82.50;51.58;;;3.30;99.90;;;;;;5112645;28;20039;-68
2022/01/10 11:14:17;;;;;;;75.78;47.58;;;3.60;99.90;;;;;;5110957;28;20043;-69
2022/01/10 11:16:45;;;;;;;70.05;47.00;;;3.80;99.90;;;;;;5111560;28;20486;-68
2022/01/10 11:19:21;;;;;;;68.30;47.58;;;3.60;99.90;;;;;;5112463;27;20059;-68
2022/01/10 11:22:03;;;;;;;72.68;49.30;;;3.50;99.90;;;;;;5113230;28;20035;-68
2022/01/10 11:24:53;;;;;;;71.18;45.50;;;3.70;99.90;;;;;;5110897;28;20051;-68
2022/01/10 11:27:28;;;;;;;66.07;44.08;;;3.70;99.90;;;;;;5094151;28;20118;-68
2022/01/10 11:29:56;;;;;;;61.30;42.63;;;3.40;99.90;;;;;;5127937;27;20130;-68
2022/01/10 11:32:51;;;;;;;63.97;44.53;;;3.70;99.90;;;;;;5112213;28;20130;-68
2022/01/10 11:35:18;;;;;;;59.22;40.38;;;3.90;99.90;;;;;;5110762;28;20052;-68
2022/01/10 11:37:46;;;;;;;54.50;37.08;;;4.20;99.90;;;;;;5112361;28;20036;-69
2022/01/10 11:40:15;;;;;;;69.70;43.13;;;4.30;99.90;;;;;;5112128;27;20052;-68
2022/01/10 11:42:53;;;;;;;58.67;39.45;;;3.20;99.90;;;;;;5111188;28;20051;-69
2022/01/10 11:45:19;;;;;;;59.53;38.67;;;;;;;;;;5111716;27;20058;-68
2022/01/10 11:48:09;;;;;;;51.85;34.83;;;4.30;99.90;;;;;;5110963;28;20486;-68
2022/01/10 11:50:35;;;;;;;62.53;39.00;;;;;;;;;;5110745;28;20052;-68
2022/01/10 11:53:04;;;;;;;64.82;39.35;;;;;;;;;;5107362;28;20225;-68
2022/01/10 11:55:41;;;;;;;57.22;38.33;;;4.50;99.90;;;;;;5109103;28;20470;-69
2022/01/10 11:58:22;;;;;;;59.33;37.95;;;4.50;99.90;;;;;;5109840;27;20043;-69
2022/01/10 12:00:50;;;;;;;59.25;37.28;;;4.60;99.90;;;;;;5108719;28;20067;-69
2022/01/10 12:03:20;;;;;;;56.72;34.40;;;4.50;99.90;;;;;;5112127;28;20539;-69
2022/01/10 12:05:47;;;;;;;51.10;33.10;;;4.60;99.90;;;;;;5110801;28;20542;-69
2022/01/10 12:08:13;;;;;;;47.38;30.75;;;;;;;;;;5093527;28;20048;-69
2022/01/10 12:10:39;;;;;;;42.08;27.73;;;4.50;99.90;;;;;;5093277;28;20047;-69
2022/01/10 12:13:10;;;;;;;44.85;28.17;;;4.80;99.90;;;;;;5110420;27;20051;-69
2022/01/10 12:15:37;;;;;;;43.15;27.42;;;4.80;99.90;;;;;;5111563;27;20388;-69
2022/01/10 12:18:04;;;;;;;46.55;26.75;;;5.20;99.90;;;;;;5109325;28;20059;-69
2022/01/10 12:20:30;;;;;;;38.63;24.58;;;;;;;;;;5110895;28;20040;-69
2022/01/10 12:22:58;;;;;;;45.80;25.48;;;5.10;99.90;;;;;;5111026;28;20044;-69
2022/01/10 12:25:24;;;;;;;43.63;25.40;;;5.60;99.90;;;;;;5111098;28;20086;-69
2022/01/10 12:27:53;;;;;;;37.88;24.77;;;5.50;99.90;;;;;;5110725;28;20487;-69
2022/01/10 12:30:21;;;;;;;36.58;25.58;;;5.20;99.90;;;;;;5093969;28;20051;-69
2022/01/10 12:32:49;;;;;;;40.28;25.80;;;5.20;99.90;;;;;;5112212;28;20495;-69
2022/01/10 12:35:16;;;;;;;35.20;23.98;;;5.30;99.90;;;;;;5110907;28;20051;-70
2022/01/10 12:37:42;;;;;;;43.00;26.83;;;;;;;;;;5110841;28;20050;-70
2022/01/10 12:40:10;;;;;;;39.22;24.92;;;5.30;99.90;;;;;;5111878;28;20039;-70
2022/01/10 12:42:36;;;;;;;37.50;24.63;;;;;;;;;;5111806;28;20040;-71
2022/01/10 12:45:03;;;;;;;35.22;24.83;;;5.30;99.90;;;;;;5110381;28;20051;-71
2022/01/10 12:47:29;;;;;;;41.47;25.05;;;5.50;99.90;;;;;;5110632;28;20126;-71
2022/01/10 12:49:55;;;;;;;35.00;24.15;;;5.10;99.90;;;;;;5127546;27;20123;-71
2022/01/10 12:52:21;;;;;;;37.92;24.08;;;5.10;99.90;;;;;;5110549;28;20502;-71
2022/01/10 12:54:48;;;;;;;39.80;25.38;;;5.10;99.90;;;;;;5111697;28;20100;-71
2022/01/10 12:57:14;;;;;;;35.20;23.77;;;5.50;99.90;;;;;;5110240;28;20035;-71
2022/01/10 12:59:40;;;;;;;35.25;24.08;;;5.50;99.90;;;;;;5110363;28;20147;-71
2022/01/10 13:02:06;;;;;;;40.78;24.35;;;5.70;99.90;;;;;;5110360;28;20051;-70
2022/01/10 13:04:39;;;;;;;38.90;25.00;;;5.80;99.90;;;;;;5092792;28;20143;-70
2022/01/10 13:07:09;;;;;;;40.25;24.27;;;5.50;99.90;;;;;;5111470;28;20130;-70
2022/01/10 13:09:35;;;;;;;39.97;25.23;;;;;;;;;;5109883;28;20052;-69